Iturama, Brazil
Current Conditions -  °F | °C
As of 6:00 PM on Monday 26 Jan 2015 (Local Time) from SBSR Reporting Station
Few Clouds Few Clouds  
Wind Chill: 88°   Ceiling: Unl
Heat Index: 88°   Visibility: 6mi
Dew Point: 61°   Wind: 0mph
Humidity: 40%   Direction: NA
Pressure: 29.85"   Gusts: NA
Location:  19.73°S, 50.2°W
Report Text: SBSR 262000Z 00000KT 9999 FEW045 31/16 Q1011
Loading
Personal Weather Stations






























Interactive Weather Map New forecast layout! Learn more

10-Day Weather Forecast

Advertisements
Track Severe Weather on mobile